sensor_id;sensor_type;location;lat;lon;timestamp;pressure;altitude;pressure_sealevel;temperature;humidity
14041;BME280;7095;51.388;6.196;2023-05-14T00:00:57;102020.53;;;-145.32;100.00
14041;BME280;7095;51.388;6.196;2023-05-14T00:03:26;102020.53;;;-145.32;100.00
14041;BME280;7095;51.388;6.196;2023-05-14T00:05:55;102278.66;;;-145.32;100.00
14041;BME280;7095;51.388;6.196;2023-05-14T00:08:24;102278.66;;;-145.32;100.00
14041;BME280;7095;51.388;6.196;2023-05-14T00:10:53;102794.91;;;-145.32;100.00
14041;BME280;7095;51.388;6.196;2023-05-14T00:13:24;102794.91;;;-145.32;100.00
14041;BME280;7095;51.388;6.196;2023-05-14T00:15:53;102536.75;;;-145.32;100.00
14041;BME280;7095;51.388;6.196;2023-05-14T00:18:22;102794.91;;;-145.32;100.00
14041;BME280;7095;51.388;6.196;2023-05-14T00:20:51;103053.06;;;-145.32;100.00
14041;BME280;7095;51.388;6.196;2023-05-14T00:23:21;103827.66;;;-145.32;100.00
14041;BME280;7095;51.388;6.196;2023-05-14T00:25:50;103827.66;;;-145.32;100.00
14041;BME280;7095;51.388;6.196;2023-05-14T00:28:19;103569.44;;;-145.32;100.00
14041;BME280;7095;51.388;6.196;2023-05-14T00:30:50;103311.25;;;-145.32;100.00
14041;BME280;7095;51.388;6.196;2023-05-14T00:33:19;102536.75;;;-145.32;100.00
14041;BME280;7095;51.388;6.196;2023-05-14T00:35:48;102278.66;;;-145.32;100.00
14041;BME280;7095;51.388;6.196;2023-05-14T00:38:17;102278.66;;;-145.32;100.00
14041;BME280;7095;51.388;6.196;2023-05-14T00:40:46;101762.47;;;-145.32;100.00
14041;BME280;7095;51.388;6.196;2023-05-14T00:43:19;100988.31;;;-145.32;100.00
14041;BME280;7095;51.388;6.196;2023-05-14T00:45:52;99956.41;;;-145.32;100.00
14041;BME280;7095;51.388;6.196;2023-05-14T00:48:22;99956.41;;;-145.32;100.00
14041;BME280;7095;51.388;6.196;2023-05-14T00:50:51;99698.47;;;-145.32;100.00
14041;BME280;7095;51.388;6.196;2023-05-14T00:53:20;99182.69;;;-145.32;100.00
14041;BME280;7095;51.388;6.196;2023-05-14T00:55:49;99440.56;;;-145.32;100.00
14041;BME280;7095;51.388;6.196;2023-05-14T00:58:18;99182.69;;;-145.32;100.00
14041;BME280;7095;51.388;6.196;2023-05-14T01:00:47;98924.81;;;-145.32;100.00
14041;BME280;7095;51.388;6.196;2023-05-14T01:03:17;98151.31;;;-145.32;100.00
14041;BME280;7095;51.388;6.196;2023-05-14T01:05:56;97120.22;;;-145.32;100.00
14041;BME280;7095;51.388;6.196;2023-05-14T01:08:31;96604.81;;;-145.32;100.00
14041;BME280;7095;51.388;6.196;2023-05-14T01:11:06;97120.22;;;-145.32;100.00
14041;BME280;7095;51.388;6.196;2023-05-14T01:13:42;95831.81;;;-145.32;100.00
14041;BME280;7095;51.388;6.196;2023-05-14T01:16:12;95831.81;;;-145.32;100.00
14041;BME280;7095;51.388;6.196;2023-05-14T01:18:45;95831.81;;;-145.32;100.00
14041;BME280;7095;51.388;6.196;2023-05-14T01:21:32;95574.19;;;-145.32;100.00
14041;BME280;7095;51.388;6.196;2023-05-14T01:24:02;95831.81;;;-145.32;100.00
14041;BME280;7095;51.388;6.196;2023-05-14T01:26:31;95574.19;;;-145.32;100.00
14041;BME280;7095;51.388;6.196;2023-05-14T01:29:04;97377.97;;;-145.32;100.00
14041;BME280;7095;51.388;6.196;2023-05-14T01:31:38;95831.81;;;-145.32;100.00
14041;BME280;7095;51.388;6.196;2023-05-14T01:34:08;95316.59;;;-145.32;100.00
14041;BME280;7095;51.388;6.196;2023-05-14T01:36:41;96604.81;;;-145.32;100.00
14041;BME280;7095;51.388;6.196;2023-05-14T01:39:11;96604.81;;;-145.32;100.00
14041;BME280;7095;51.388;6.196;2023-05-14T01:41:41;95831.81;;;-145.32;100.00
14041;BME280;7095;51.388;6.196;2023-05-14T01:44:11;96089.47;;;-145.32;100.00
14041;BME280;7095;51.388;6.196;2023-05-14T01:46:41;96089.47;;;-145.32;100.00
14041;BME280;7095;51.388;6.196;2023-05-14T01:49:09;96089.47;;;-145.32;100.00
14041;BME280;7095;51.388;6.196;2023-05-14T01:51:40;94286.38;;;-145.32;100.00
14041;BME280;7095;51.388;6.196;2023-05-14T01:54:09;94286.38;;;-145.32;100.00
14041;BME280;7095;51.388;6.196;2023-05-14T01:56:37;94028.84;;;-145.32;100.00
14041;BME280;7095;51.388;6.196;2023-05-14T01:59:06;96347.13;;;-145.32;100.00
14041;BME280;7095;51.388;6.196;2023-05-14T02:01:35;95831.81;;;-145.32;100.00
14041;BME280;7095;51.388;6.196;2023-05-14T02:04:04;95831.81;;;-145.32;100.00
14041;BME280;7095;51.388;6.196;2023-05-14T02:06:32;95831.81;;;-145.32;100.00
14041;BME280;7095;51.388;6.196;2023-05-14T02:09:03;95316.59;;;-145.32;100.00
14041;BME280;7095;51.388;6.196;2023-05-14T02:11:32;95831.81;;;-145.32;100.00
14041;BME280;7095;51.388;6.196;2023-05-14T02:14:01;96604.81;;;-145.32;100.00
14041;BME280;7095;51.388;6.196;2023-05-14T02:16:29;96089.47;;;-145.32;100.00
14041;BME280;7095;51.388;6.196;2023-05-14T02:18:58;95316.59;;;-145.32;100.00
14041;BME280;7095;51.388;6.196;2023-05-14T02:21:26;97893.50;;;-145.32;100.00
14041;BME280;7095;51.388;6.196;2023-05-14T02:23:55;96089.47;;;-145.32;100.00
14041;BME280;7095;51.388;6.196;2023-05-14T02:26:25;96604.81;;;-145.32;100.00
14041;BME280;7095;51.388;6.196;2023-05-14T02:28:54;96604.81;;;-145.32;100.00
14041;BME280;7095;51.388;6.196;2023-05-14T02:31:23;96862.50;;;-145.32;100.00
14041;BME280;7095;51.388;6.196;2023-05-14T02:33:51;95574.19;;;-145.32;100.00
14041;BME280;7095;51.388;6.196;2023-05-14T02:36:20;92999.00;;;-145.32;100.00
14041;BME280;7095;51.388;6.196;2023-05-14T02:38:48;93771.38;;;-145.32;100.00
14041;BME280;7095;51.388;6.196;2023-05-14T02:41:17;95316.59;;;-145.32;100.00
14041;BME280;7095;51.388;6.196;2023-05-14T02:43:47;95316.59;;;-145.32;100.00
14041;BME280;7095;51.388;6.196;2023-05-14T02:46:15;95574.19;;;-145.32;100.00
14041;BME280;7095;51.388;6.196;2023-05-14T02:48:44;96089.47;;;-145.32;100.00
14041;BME280;7095;51.388;6.196;2023-05-14T02:51:13;94028.84;;;-145.32;100.00
14041;BME280;7095;51.388;6.196;2023-05-14T02:53:42;92484.19;;;-145.32;100.00
14041;BME280;7095;51.388;6.196;2023-05-14T02:56:10;93513.91;;;-145.32;100.00
14041;BME280;7095;51.388;6.196;2023-05-14T02:58:39;94028.84;;;-145.32;100.00
14041;BME280;7095;51.388;6.196;2023-05-14T03:01:08;94286.38;;;-145.32;100.00
14041;BME280;7095;51.388;6.196;2023-05-14T03:03:37;93256.44;;;-145.32;100.00
14041;BME280;7095;51.388;6.196;2023-05-14T03:06:07;93771.38;;;-145.32;100.00
14041;BME280;7095;51.388;6.196;2023-05-14T03:08:35;93771.38;;;-145.32;100.00
14041;BME280;7095;51.388;6.196;2023-05-14T03:11:04;92226.81;;;-145.32;100.00
14041;BME280;7095;51.388;6.196;2023-05-14T03:13:32;94286.38;;;-145.32;100.00
14041;BME280;7095;51.388;6.196;2023-05-14T03:16:02;96089.47;;;-145.32;100.00
14041;BME280;7095;51.388;6.196;2023-05-14T03:18:32;94801.44;;;-145.32;100.00
14041;BME280;7095;51.388;6.196;2023-05-14T03:21:02;95059.00;;;-145.32;100.00
14041;BME280;7095;51.388;6.196;2023-05-14T03:23:31;94028.84;;;-145.32;100.00
14041;BME280;7095;51.388;6.196;2023-05-14T03:26:01;94286.38;;;-145.32;100.00
14041;BME280;7095;51.388;6.196;2023-05-14T03:28:29;94543.91;;;-145.32;100.00
14041;BME280;7095;51.388;6.196;2023-05-14T03:30:59;94028.84;;;-145.32;100.00
14041;BME280;7095;51.388;6.196;2023-05-14T03:33:29;94801.44;;;-145.32;100.00
14041;BME280;7095;51.388;6.196;2023-05-14T03:35:59;94286.38;;;-145.32;100.00
14041;BME280;7095;51.388;6.196;2023-05-14T03:38:27;93256.44;;;-145.32;100.00
14041;BME280;7095;51.388;6.196;2023-05-14T03:40:56;93256.44;;;-145.32;100.00
14041;BME280;7095;51.388;6.196;2023-05-14T03:43:25;92999.00;;;-145.32;100.00
14041;BME280;7095;51.388;6.196;2023-05-14T03:45:54;92484.19;;;-145.32;100.00
14041;BME280;7095;51.388;6.196;2023-05-14T03:48:23;93256.44;;;-145.32;100.00
14041;BME280;7095;51.388;6.196;2023-05-14T03:50:51;93256.44;;;-145.32;100.00
14041;BME280;7095;51.388;6.196;2023-05-14T03:53:21;93256.44;;;-145.32;100.00
14041;BME280;7095;51.388;6.196;2023-05-14T03:55:50;93771.38;;;-145.32;100.00
14041;BME280;7095;51.388;6.196;2023-05-14T03:58:19;94543.91;;;-145.32;100.00
14041;BME280;7095;51.388;6.196;2023-05-14T04:00:47;94543.91;;;-145.32;100.00
14041;BME280;7095;51.388;6.196;2023-05-14T04:03:16;93513.91;;;-145.32;100.00
14041;BME280;7095;51.388;6.196;2023-05-14T04:05:44;95059.00;;;-145.32;100.00
14041;BME280;7095;51.388;6.196;2023-05-14T04:08:13;95574.19;;;-145.32;100.00
14041;BME280;7095;51.388;6.196;2023-05-14T04:10:43;94801.44;;;-145.32;100.00
14041;BME280;7095;51.388;6.196;2023-05-14T04:13:11;94286.38;;;-145.32;100.00
14041;BME280;7095;51.388;6.196;2023-05-14T04:15:40;94286.38;;;-145.32;100.00
14041;BME280;7095;51.388;6.196;2023-05-14T04:18:09;95831.81;;;-145.32;100.00
14041;BME280;7095;51.388;6.196;2023-05-14T04:20:37;96347.13;;;-145.32;100.00
14041;BME280;7095;51.388;6.196;2023-05-14T04:23:06;98409.13;;;-145.32;100.00
14041;BME280;7095;51.388;6.196;2023-05-14T04:25:35;97893.50;;;-145.32;100.00
14041;BME280;7095;51.388;6.196;2023-05-14T04:28:05;97377.97;;;-145.32;100.00
14041;BME280;7095;51.388;6.196;2023-05-14T04:30:33;97377.97;;;-145.32;100.00
14041;BME280;7095;51.388;6.196;2023-05-14T04:33:02;98151.31;;;-145.32;100.00
14041;BME280;7095;51.388;6.196;2023-05-14T04:35:31;97893.50;;;-145.32;100.00
14041;BME280;7095;51.388;6.196;2023-05-14T04:37:59;97893.50;;;-145.32;100.00
14041;BME280;7095;51.388;6.196;2023-05-14T04:40:27;98409.13;;;-145.32;100.00
14041;BME280;7095;51.388;6.196;2023-05-14T04:42:57;98409.13;;;-145.32;100.00
14041;BME280;7095;51.388;6.196;2023-05-14T04:45:27;98409.13;;;-145.32;100.00
14041;BME280;7095;51.388;6.196;2023-05-14T04:47:57;98409.13;;;-145.32;100.00
14041;BME280;7095;51.388;6.196;2023-05-14T04:50:26;98409.13;;;-145.32;100.00
14041;BME280;7095;51.388;6.196;2023-05-14T04:52:55;98666.94;;;-145.32;100.00
14041;BME280;7095;51.388;6.196;2023-05-14T04:55:23;99956.41;;;-145.32;100.00
14041;BME280;7095;51.388;6.196;2023-05-14T04:57:52;101504.38;;;-145.32;100.00
14041;BME280;7095;51.388;6.196;2023-05-14T05:00:20;100730.31;;;-145.32;100.00
14041;BME280;7095;51.388;6.196;2023-05-14T05:02:51;100472.31;;;-145.32;100.00
14041;BME280;7095;51.388;6.196;2023-05-14T05:05:19;100472.31;;;-145.32;100.00
14041;BME280;7095;51.388;6.196;2023-05-14T05:07:48;101246.34;;;-145.32;100.00
14041;BME280;7095;51.388;6.196;2023-05-14T05:10:17;101762.47;;;-145.32;100.00
14041;BME280;7095;51.388;6.196;2023-05-14T05:12:45;102278.66;;;-145.32;100.00
14041;BME280;7095;51.388;6.196;2023-05-14T05:15:14;102536.75;;;-145.32;100.00
14041;BME280;7095;51.388;6.196;2023-05-14T05:17:43;103053.06;;;-145.32;100.00
14041;BME280;7095;51.388;6.196;2023-05-14T05:20:13;103053.06;;;-145.32;100.00
14041;BME280;7095;51.388;6.196;2023-05-14T05:22:41;103311.25;;;-145.32;100.00
14041;BME280;7095;51.388;6.196;2023-05-14T05:25:10;103827.66;;;-145.32;100.00
14041;BME280;7095;51.388;6.196;2023-05-14T05:27:38;103827.66;;;-145.32;100.00
14041;BME280;7095;51.388;6.196;2023-05-14T05:30:08;104085.91;;;-145.32;100.00
14041;BME280;7095;51.388;6.196;2023-05-14T05:32:36;104344.16;;;-145.32;100.00
14041;BME280;7095;51.388;6.196;2023-05-14T05:35:06;104602.44;;;-145.32;100.00
14041;BME280;7095;51.388;6.196;2023-05-14T05:37:36;104344.16;;;-145.32;100.00
14041;BME280;7095;51.388;6.196;2023-05-14T05:40:05;104344.16;;;-145.32;100.00
14041;BME280;7095;51.388;6.196;2023-05-14T05:42:35;104344.16;;;-145.32;100.00
14041;BME280;7095;51.388;6.196;2023-05-14T05:45:05;104344.16;;;-145.32;100.00
14041;BME280;7095;51.388;6.196;2023-05-14T05:47:33;103569.44;;;-145.32;100.00
14041;BME280;7095;51.388;6.196;2023-05-14T05:50:02;103569.44;;;-145.32;100.00
14041;BME280;7095;51.388;6.196;2023-05-14T05:52:31;103569.44;;;-145.32;100.00
14041;BME280;7095;51.388;6.196;2023-05-14T05:55:01;103827.66;;;-145.32;100.00
14041;BME280;7095;51.388;6.196;2023-05-14T05:57:29;100988.31;;;-145.32;100.00
14041;BME280;7095;51.388;6.196;2023-05-14T05:59:58;101762.47;;;-145.32;100.00
14041;BME280;7095;51.388;6.196;2023-05-14T06:02:27;101246.34;;;-145.32;100.00
14041;BME280;7095;51.388;6.196;2023-05-14T06:04:55;100214.34;;;-145.32;100.00
14041;BME280;7095;51.388;6.196;2023-05-14T06:07:24;98924.81;;;-145.32;100.00
14041;BME280;7095;51.388;6.196;2023-05-14T06:09:52;99440.56;;;-145.32;100.00
14041;BME280;7095;51.388;6.196;2023-05-14T06:12:23;97377.97;;;-145.32;100.00
14041;BME280;7095;51.388;6.196;2023-05-14T06:14:52;98666.94;;;-145.32;100.00
14041;BME280;7095;51.388;6.196;2023-05-14T06:17:23;96347.13;;;-145.32;100.00
14041;BME280;7095;51.388;6.196;2023-05-14T06:19:53;97635.72;;;-145.32;100.00
14041;BME280;7095;51.388;6.196;2023-05-14T06:22:21;94801.44;;;-145.32;100.00
14041;BME280;7095;51.388;6.196;2023-05-14T06:24:50;94801.44;;;-145.32;100.00
14041;BME280;7095;51.388;6.196;2023-05-14T06:27:19;92741.59;;;-145.32;100.00
14041;BME280;7095;51.388;6.196;2023-05-14T06:29:49;92999.00;;;-145.32;100.00
14041;BME280;7095;51.388;6.196;2023-05-14T06:32:18;90425.72;;;-145.32;100.00
14041;BME280;7095;51.388;6.196;2023-05-14T06:34:46;89139.81;;;-145.32;100.00
14041;BME280;7095;51.388;6.196;2023-05-14T06:37:15;91969.47;;;-145.32;100.00
14041;BME280;7095;51.388;6.196;2023-05-14T06:39:43;90940.22;;;-145.32;100.00
14041;BME280;7095;51.388;6.196;2023-05-14T06:42:16;88111.41;;;-145.32;100.00
14041;BME280;7095;51.388;6.196;2023-05-14T06:44:46;89654.13;;;-145.32;100.00
14041;BME280;7095;51.388;6.196;2023-05-14T06:47:16;88882.69;;;-145.32;100.00
14041;BME280;7095;51.388;6.196;2023-05-14T06:49:45;86312.47;;;-145.32;100.00
14041;BME280;7095;51.388;6.196;2023-05-14T06:52:13;87083.34;;;-145.32;100.00
14041;BME280;7095;51.388;6.196;2023-05-14T06:54:42;82717.38;;;-145.32;100.00
14041;BME280;7095;51.388;6.196;2023-05-14T06:57:10;75026.22;;;-145.32;100.00
14041;BME280;7095;51.388;6.196;2023-05-14T06:59:39;71698.75;;;-145.32;100.00
14041;BME280;7095;51.388;6.196;2023-05-14T07:02:07;66350.38;;;-145.32;100.00
14041;BME280;7095;51.388;6.196;2023-05-14T07:04:38;63025.34;;;-145.32;100.00
14041;BME280;7095;51.388;6.196;2023-05-14T07:07:06;69357.06;;;-145.32;100.00
14041;BME280;7095;51.388;6.196;2023-05-14T07:09:36;74258.06;;;-145.32;100.00
14041;BME280;7095;51.388;6.196;2023-05-14T07:12:06;65787.66;;;-145.32;100.00
14041;BME280;7095;51.388;6.196;2023-05-14T07:14:34;69614.72;;;-145.32;100.00
14041;BME280;7095;51.388;6.196;2023-05-14T07:17:03;66993.00;;;-145.32;100.00
14041;BME280;7095;51.388;6.196;2023-05-14T07:19:31;70172.06;;;-145.32;100.00
14041;BME280;7095;51.388;6.196;2023-05-14T07:22:02;66392.28;;;-145.32;100.00
14041;BME280;7095;51.388;6.196;2023-05-14T07:24:30;65338.75;;;-145.32;100.00
14041;BME280;7095;51.388;6.196;2023-05-14T07:26:59;67001.00;;;-145.32;100.00
14041;BME280;7095;51.388;6.196;2023-05-14T07:29:28;64997.63;;;-145.32;100.00
14041;BME280;7095;51.388;6.196;2023-05-14T07:31:57;61070.13;;;-145.32;100.00
14041;BME280;7095;51.388;6.196;2023-05-14T07:34:25;60012.28;;;-145.32;100.00
14041;BME280;7095;51.388;6.196;2023-05-14T07:36:54;60775.25;;;-145.32;100.00
14041;BME280;7095;51.388;6.196;2023-05-14T07:39:24;60833.03;;;-145.32;100.00
14041;BME280;7095;51.388;6.196;2023-05-14T07:41:53;62062.53;;;-145.32;100.00
14041;BME280;7095;51.388;6.196;2023-05-14T07:44:21;62068.53;;;-145.32;100.00
14041;BME280;7095;51.388;6.196;2023-05-14T07:46:52;60010.28;;;-145.32;100.00
14041;BME280;7095;51.388;6.196;2023-05-14T07:49:21;58100.63;;;-145.32;100.00
14041;BME280;7095;51.388;6.196;2023-05-14T07:51:49;59693.59;;;-145.32;100.00
14041;BME280;7095;51.388;6.196;2023-05-14T07:54:18;59478.50;;;-145.32;100.00
14041;BME280;7095;51.388;6.196;2023-05-14T07:56:48;56677.50;;;-145.32;100.00
14041;BME280;7095;51.388;6.196;2023-05-14T07:59:16;56627.78;;;-145.32;100.00
14041;BME280;7095;51.388;6.196;2023-05-14T08:01:45;55843.84;;;-145.32;100.00
14041;BME280;7095;51.388;6.196;2023-05-14T08:04:13;56564.09;;;-145.32;100.00
14041;BME280;7095;51.388;6.196;2023-05-14T08:06:42;56478.53;;;-145.32;100.00
14041;BME280;7095;51.388;6.196;2023-05-14T08:09:10;55945.31;;;-145.32;100.00
14041;BME280;7095;51.388;6.196;2023-05-14T08:11:39;56080.59;;;-145.32;100.00
14041;BME280;7095;51.388;6.196;2023-05-14T08:14:09;55662.81;;;-145.32;100.00
14041;BME280;7095;51.388;6.196;2023-05-14T08:16:37;55147.59;;;-145.32;100.00
14041;BME280;7095;51.388;6.196;2023-05-14T08:19:06;54773.69;;;-145.32;100.00
14041;BME280;7095;51.388;6.196;2023-05-14T08:21:34;54904.94;;;-145.32;100.00
14041;BME280;7095;51.388;6.196;2023-05-14T08:24:03;54397.81;;;-145.32;100.00
14041;BME280;7095;51.388;6.196;2023-05-14T08:26:32;54326.25;;;-145.32;100.00
14041;BME280;7095;51.388;6.196;2023-05-14T08:29:01;54107.50;;;-145.32;100.00
14041;BME280;7095;51.388;6.196;2023-05-14T08:31:31;54095.56;;;-145.32;100.00
14041;BME280;7095;51.388;6.196;2023-05-14T08:33:59;54111.47;;;-145.32;100.00
14041;BME280;7095;51.388;6.196;2023-05-14T08:36:27;54131.38;;;-145.32;100.00
14041;BME280;7095;51.388;6.196;2023-05-14T08:38:56;54057.78;;;-145.32;100.00
14041;BME280;7095;51.388;6.196;2023-05-14T08:41:24;54045.88;;;-145.32;100.00
14041;BME280;7095;51.388;6.196;2023-05-14T08:43:58;53964.34;;;-145.32;100.00
14041;BME280;7095;51.388;6.196;2023-05-14T08:46:31;54083.66;;;-145.32;100.00
14041;BME280;7095;51.388;6.196;2023-05-14T08:49:06;54029.97;;;-145.32;100.00
14041;BME280;7095;51.388;6.196;2023-05-14T08:51:37;53962.34;;;-145.32;100.00
14041;BME280;7095;51.388;6.196;2023-05-14T08:54:06;53994.16;;;-145.32;100.00
14041;BME280;7095;51.388;6.196;2023-05-14T08:56:35;53845.03;;;-145.32;100.00
14041;BME280;7095;51.388;6.196;2023-05-14T08:59:06;53791.34;;;-145.32;100.00
14041;BME280;7095;51.388;6.196;2023-05-14T09:01:37;53695.94;;;-145.32;100.00
14041;BME280;7095;51.388;6.196;2023-05-14T09:04:07;53686.00;;;-145.32;100.00
14041;BME280;7095;51.388;6.196;2023-05-14T09:06:36;53616.41;;;-145.32;100.00
14041;BME280;7095;51.388;6.196;2023-05-14T09:09:05;53586.56;;;-145.32;100.00
14041;BME280;7095;51.388;6.196;2023-05-14T09:11:39;53590.56;;;-145.32;100.00
14041;BME280;7095;51.388;6.196;2023-05-14T09:14:09;53590.56;;;-145.32;100.00
14041;BME280;7095;51.388;6.196;2023-05-14T09:16:39;53550.78;;;-145.32;100.00
14041;BME280;7095;51.388;6.196;2023-05-14T09:19:09;53544.81;;;-145.32;100.00
14041;BME280;7095;51.388;6.196;2023-05-14T09:21:38;53522.97;;;-145.32;100.00
14041;BME280;7095;51.388;6.196;2023-05-14T09:24:07;53544.81;;;-145.32;100.00
14041;BME280;7095;51.388;6.196;2023-05-14T09:26:36;53534.88;;;-145.32;100.00
14041;BME280;7095;51.388;6.196;2023-05-14T09:29:05;53520.97;;;-145.32;100.00
14041;BME280;7095;51.388;6.196;2023-05-14T09:31:33;53507.06;;;-145.32;100.00
14041;BME280;7095;51.388;6.196;2023-05-14T09:34:05;53517.00;;;-145.32;100.00
14041;BME280;7095;51.388;6.196;2023-05-14T09:36:34;53532.91;;;-145.32;100.00
14041;BME280;7095;51.388;6.196;2023-05-14T09:39:03;53522.97;;;-145.32;100.00
14041;BME280;7095;51.388;6.196;2023-05-14T09:41:33;53560.72;;;-145.32;100.00
14041;BME280;7095;51.388;6.196;2023-05-14T09:44:02;53493.13;;;-145.32;100.00
14041;BME280;7095;51.388;6.196;2023-05-14T09:46:32;53542.84;;;-145.32;100.00
14041;BME280;7095;51.388;6.196;2023-05-14T09:49:01;53515.00;;;-145.32;100.00
14041;BME280;7095;51.388;6.196;2023-05-14T09:51:31;53534.88;;;-145.32;100.00
14041;BME280;7095;51.388;6.196;2023-05-14T09:54:00;53532.91;;;-145.32;100.00
14041;BME280;7095;51.388;6.196;2023-05-14T09:56:29;53518.97;;;-145.32;100.00
14041;BME280;7095;51.388;6.196;2023-05-14T09:58:58;53481.22;;;-145.32;96.72
14041;BME280;7095;51.388;6.196;2023-05-14T10:01:28;53481.22;;;-145.32;94.06
14041;BME280;7095;51.388;6.196;2023-05-14T10:03:58;53503.06;;;-145.32;90.48
14041;BME280;7095;51.388;6.196;2023-05-14T10:06:32;53515.00;;;-145.32;90.50
14041;BME280;7095;51.388;6.196;2023-05-14T10:09:02;53435.47;;;-145.32;92.15
14041;BME280;7095;51.388;6.196;2023-05-14T10:11:33;53449.41;;;-145.32;86.66
14041;BME280;7095;51.388;6.196;2023-05-14T10:14:07;53459.34;;;-145.32;82.20
14041;BME280;7095;51.388;6.196;2023-05-14T10:16:40;53457.34;;;-145.32;89.50
14041;BME280;7095;51.388;6.196;2023-05-14T10:19:11;53455.38;;;-145.32;90.02
14041;BME280;7095;51.388;6.196;2023-05-14T10:21:44;53475.25;;;-145.32;95.18
14041;BME280;7095;51.388;6.196;2023-05-14T10:24:16;53485.19;;;-145.32;89.57
14041;BME280;7095;51.388;6.196;2023-05-14T10:26:46;53423.56;;;-145.32;84.11
14041;BME280;7095;51.388;6.196;2023-05-14T10:29:15;53445.44;;;-145.32;84.89
14041;BME280;7095;51.388;6.196;2023-05-14T10:31:48;53411.63;;;-145.32;81.67
14041;BME280;7095;51.388;6.196;2023-05-14T10:34:31;53411.63;;;-145.32;78.04
14041;BME280;7095;51.388;6.196;2023-05-14T10:37:02;53395.72;;;-145.32;76.76
14041;BME280;7095;51.388;6.196;2023-05-14T10:39:45;53407.66;;;-145.32;72.59
14041;BME280;7095;51.388;6.196;2023-05-14T10:42:17;53401.69;;;-145.32;73.82
14041;BME280;7095;51.388;6.196;2023-05-14T10:44:51;53383.78;;;-145.32;68.60
14041;BME280;7095;51.388;6.196;2023-05-14T10:47:21;53353.97;;;-145.32;67.72
14041;BME280;7095;51.388;6.196;2023-05-14T10:49:52;53359.94;;;-145.32;64.53
14041;BME280;7095;51.388;6.196;2023-05-14T10:52:24;53353.97;;;-145.32;65.60
14041;BME280;7095;51.388;6.196;2023-05-14T10:54:54;53389.75;;;-145.32;63.29
14041;BME280;7095;51.388;6.196;2023-05-14T10:57:24;53375.84;;;-145.32;62.07
14041;BME280;7095;51.388;6.196;2023-05-14T10:59:55;53367.91;;;-145.32;58.98
14041;BME280;7095;51.388;6.196;2023-05-14T11:02:25;53381.81;;;-145.32;60.90
14041;BME280;7095;51.388;6.196;2023-05-14T11:04:56;53397.72;;;-145.32;59.97
14041;BME280;7095;51.388;6.196;2023-05-14T11:07:32;53379.81;;;-145.32;60.19
14041;BME280;7095;51.388;6.196;2023-05-14T11:10:03;53352.00;;;-145.32;61.54
14041;BME280;7095;51.388;6.196;2023-05-14T11:12:33;53359.94;;;-145.32;58.79
14041;BME280;7095;51.388;6.196;2023-05-14T11:15:06;53344.03;;;-145.32;54.39
14041;BME280;7095;51.388;6.196;2023-05-14T11:17:37;53342.06;;;-145.32;54.69
14041;BME280;7095;51.388;6.196;2023-05-14T11:20:08;53312.22;;;-145.32;54.17
14041;BME280;7095;51.388;6.196;2023-05-14T11:22:40;53314.22;;;-145.32;55.19
14041;BME280;7095;51.388;6.196;2023-05-14T11:25:11;53336.09;;;-145.32;56.62
14041;BME280;7095;51.388;6.196;2023-05-14T11:27:43;53330.13;;;-145.32;55.17
14041;BME280;7095;51.388;6.196;2023-05-14T11:30:13;53334.09;;;-145.32;53.43
14041;BME280;7095;51.388;6.196;2023-05-14T11:32:43;53326.16;;;-145.32;51.80
14041;BME280;7095;51.388;6.196;2023-05-14T11:35:13;53320.19;;;-145.32;50.81
14041;BME280;7095;51.388;6.196;2023-05-14T11:37:48;53304.28;;;-145.32;46.80
14041;BME280;7095;51.388;6.196;2023-05-14T11:40:18;53296.31;;;-145.32;51.02
14041;BME280;7095;51.388;6.196;2023-05-14T11:42:50;53288.38;;;-145.32;48.93
14041;BME280;7095;51.388;6.196;2023-05-14T11:45:23;53288.38;;;-145.32;47.32
14041;BME280;7095;51.388;6.196;2023-05-14T11:47:52;53266.50;;;-145.32;48.54
14041;BME280;7095;51.388;6.196;2023-05-14T11:50:21;53274.47;;;-145.32;47.94
14041;BME280;7095;51.388;6.196;2023-05-14T11:52:55;53248.63;;;-145.32;46.49
14041;BME280;7095;51.388;6.196;2023-05-14T11:55:24;53228.75;;;-145.32;46.54
14041;BME280;7095;51.388;6.196;2023-05-14T11:57:53;53282.41;;;-145.32;44.82
14041;BME280;7095;51.388;6.196;2023-05-14T12:00:22;53256.56;;;-145.32;45.16
14041;BME280;7095;51.388;6.196;2023-05-14T12:02:51;53222.78;;;-145.32;44.65
14041;BME280;7095;51.388;6.196;2023-05-14T12:05:21;53260.53;;;-145.32;41.85
14041;BME280;7095;51.388;6.196;2023-05-14T12:07:51;53220.78;;;-145.32;41.47
14041;BME280;7095;51.388;6.196;2023-05-14T12:10:20;53226.75;;;-145.32;40.22
14041;BME280;7095;51.388;6.196;2023-05-14T12:12:49;53232.72;;;-145.32;38.22
14041;BME280;7095;51.388;6.196;2023-05-14T12:15:18;53250.59;;;-145.32;37.67
14041;BME280;7095;51.388;6.196;2023-05-14T12:17:50;53204.88;;;-145.32;36.15
14041;BME280;7095;51.388;6.196;2023-05-14T12:20:19;53194.94;;;-145.32;37.71
14041;BME280;7095;51.388;6.196;2023-05-14T12:22:48;53232.72;;;-145.32;37.23
14041;BME280;7095;51.388;6.196;2023-05-14T12:25:18;53232.72;;;-145.32;34.92
14041;BME280;7095;51.388;6.196;2023-05-14T12:27:46;53202.91;;;-145.32;35.22
14041;BME280;7095;51.388;6.196;2023-05-14T12:30:15;53192.94;;;-145.32;34.18
14041;BME280;7095;51.388;6.196;2023-05-14T12:32:48;53173.06;;;-145.32;33.87
14041;BME280;7095;51.388;6.196;2023-05-14T12:35:19;53188.97;;;-145.32;33.62
14041;BME280;7095;51.388;6.196;2023-05-14T12:37:49;53173.06;;;-145.32;33.78
14041;BME280;7095;51.388;6.196;2023-05-14T12:40:18;53250.59;;;-145.32;33.42
14041;BME280;7095;51.388;6.196;2023-05-14T12:42:47;53183.00;;;-145.32;33.43
14041;BME280;7095;51.388;6.196;2023-05-14T12:45:16;53179.03;;;-145.32;33.24
14041;BME280;7095;51.388;6.196;2023-05-14T12:47:45;53173.06;;;-145.32;33.11
14041;BME280;7095;51.388;6.196;2023-05-14T12:50:13;53145.25;;;-145.32;32.93
14041;BME280;7095;51.388;6.196;2023-05-14T12:52:42;53161.16;;;-145.32;32.92